createdAt,value
2023-10-06T00:00:41.728Z,15.45
2023-10-06T00:03:31.250Z,15.13
2023-10-06T00:06:23.604Z,15.30
2023-10-06T00:09:21.840Z,14.73
2023-10-06T00:12:14.486Z,18.63
2023-10-06T00:15:09.082Z,17.92
2023-10-06T00:20:57.259Z,15.85
2023-10-06T00:23:48.134Z,24.17
2023-10-06T00:26:35.945Z,24.58
2023-10-06T00:29:24.741Z,16.60
2023-10-06T00:32:26.710Z,19.38
2023-10-06T00:35:16.546Z,18.88
2023-10-06T00:38:14.529Z,20.13
2023-10-06T00:41:07.769Z,19.63
2023-10-06T00:43:56.615Z,19.42
2023-10-06T00:46:45.649Z,21.08
2023-10-06T00:49:34.140Z,18.50
2023-10-06T00:52:22.389Z,19.27
2023-10-06T00:55:15.599Z,19.02
2023-10-06T00:58:05.677Z,15.13
2023-10-06T01:00:57.787Z,15.98
2023-10-06T01:03:49.514Z,19.17
2023-10-06T01:06:39.807Z,14.77
2023-10-06T01:09:34.019Z,18.35
2023-10-06T01:12:23.262Z,14.98
2023-10-06T01:15:18.495Z,16.90
2023-10-06T01:18:12.875Z,23.45
2023-10-06T01:21:10.727Z,15.93
2023-10-06T01:24:00.889Z,14.48
2023-10-06T01:26:50.478Z,25.90
2023-10-06T01:29:38.496Z,16.67
2023-10-06T01:32:28.157Z,16.10
2023-10-06T01:35:17.605Z,22.10
2023-10-06T01:38:07.122Z,15.57
2023-10-06T01:40:56.349Z,16.98
2023-10-06T01:43:46.130Z,18.38
2023-10-06T01:46:33.893Z,17.20
2023-10-06T01:49:23.084Z,20.52
2023-10-06T01:52:15.156Z,19.33
2023-10-06T01:55:11.048Z,23.67
2023-10-06T01:58:00.531Z,19.65
2023-10-06T02:00:51.345Z,17.60
2023-10-06T02:03:41.292Z,18.20
2023-10-06T02:06:30.865Z,16.30
2023-10-06T02:09:19.613Z,15.40
2023-10-06T02:12:08.548Z,16.23
2023-10-06T02:14:57.896Z,20.67
2023-10-06T02:17:46.565Z,23.73
2023-10-06T02:20:36.242Z,15.88
2023-10-06T02:23:24.718Z,15.05
2023-10-06T02:26:15.444Z,14.93
2023-10-06T02:29:04.773Z,22.05
2023-10-06T02:31:54.998Z,18.90
2023-10-06T02:34:43.054Z,18.40
2023-10-06T02:37:32.641Z,24.30
2023-10-06T02:40:30.752Z,15.55
2023-10-06T02:43:24.172Z,23.77
2023-10-06T02:46:12.253Z,17.52
2023-10-06T02:49:08.321Z,23.58
2023-10-06T02:51:56.221Z,18.75
2023-10-06T02:54:56.608Z,16.40
2023-10-06T02:57:52.219Z,21.23
2023-10-06T03:00:40.524Z,18.27
2023-10-06T03:03:29.552Z,19.75
2023-10-06T03:06:21.137Z,18.05
2023-10-06T03:09:09.932Z,19.10
2023-10-06T03:12:01.351Z,24.17
2023-10-06T03:14:49.173Z,18.20
2023-10-06T03:17:36.943Z,17.13
2023-10-06T03:20:29.191Z,18.23
2023-10-06T03:23:28.103Z,16.65
2023-10-06T03:26:26.565Z,17.48
2023-10-06T03:29:29.577Z,16.23
2023-10-06T03:32:28.440Z,18.15
2023-10-06T03:35:23.185Z,18.45
2023-10-06T03:38:28.924Z,19.27
2023-10-06T03:41:25.880Z,20.10
2023-10-06T03:44:14.153Z,32.55
2023-10-06T03:47:03.120Z,32.33
2023-10-06T03:49:52.683Z,14.98
2023-10-06T03:52:40.705Z,19.80
2023-10-06T03:55:28.513Z,18.13
2023-10-06T03:58:19.656Z,20.50
2023-10-06T04:01:10.735Z,20.55
2023-10-06T04:03:59.851Z,24.55
2023-10-06T04:06:49.103Z,19.50
2023-10-06T04:09:37.299Z,29.75
2023-10-06T04:12:25.300Z,29.23
2023-10-06T04:15:16.712Z,37.50
2023-10-06T04:18:05.148Z,22.50
2023-10-06T04:20:54.124Z,19.90
2023-10-06T04:23:42.860Z,17.80
2023-10-06T04:26:31.605Z,22.73
2023-10-06T04:29:20.018Z,22.30
2023-10-06T04:32:14.815Z,21.80
2023-10-06T04:37:50.732Z,23.58
2023-10-06T04:40:39.057Z,18.10
2023-10-06T04:43:27.376Z,25.98
2023-10-06T04:46:16.638Z,24.45
2023-10-06T04:49:08.827Z,23.25
2023-10-06T04:52:01.483Z,21.25
2023-10-06T04:54:49.538Z,26.45
2023-10-06T04:57:37.410Z,55.40
2023-10-06T05:00:28.582Z,28.92
2023-10-06T05:03:16.524Z,30.70
2023-10-06T05:06:10.819Z,24.27
2023-10-06T05:08:58.843Z,32.50
2023-10-06T05:11:47.343Z,25.25
2023-10-06T05:14:35.712Z,24.92
2023-10-06T05:17:23.580Z,30.20
2023-10-06T05:20:20.714Z,27.25
2023-10-06T05:23:10.910Z,31.40
2023-10-06T05:26:04.052Z,39.13
2023-10-06T05:28:53.030Z,28.35
2023-10-06T05:31:41.156Z,26.92
2023-10-06T05:34:31.020Z,26.15
2023-10-06T05:37:18.796Z,30.98
2023-10-06T05:40:13.285Z,29.02
2023-10-06T05:45:53.456Z,37.72
2023-10-06T05:48:43.355Z,28.27
2023-10-06T05:51:34.519Z,32.67
2023-10-06T05:54:24.014Z,38.78
2023-10-06T05:57:13.449Z,35.30
2023-10-06T06:00:02.306Z,25.80
2023-10-06T06:02:50.077Z,35.08
2023-10-06T06:05:39.923Z,26.48
2023-10-06T06:08:31.455Z,22.20
2023-10-06T06:11:19.626Z,23.77
2023-10-06T06:14:17.570Z,30.60
2023-10-06T06:17:06.879Z,30.83
2023-10-06T06:20:04.571Z,29.20
2023-10-06T06:22:59.871Z,28.73
2023-10-06T06:25:48.190Z,29.70
2023-10-06T06:28:37.792Z,34.75
2023-10-06T06:31:27.171Z,23.42
2023-10-06T06:34:15.402Z,27.30
2023-10-06T06:37:03.157Z,31.30
2023-10-06T06:39:51.260Z,26.33
2023-10-06T06:42:38.959Z,23.23
2023-10-06T06:45:27.085Z,23.15
2023-10-06T06:48:18.467Z,22.33
2023-10-06T06:51:06.784Z,22.42
2023-10-06T06:53:57.577Z,22.65
2023-10-06T06:56:45.326Z,19.23
2023-10-06T06:59:33.295Z,24.95
2023-10-06T07:02:22.263Z,19.30
2023-10-06T07:05:12.897Z,21.92
2023-10-06T07:08:02.553Z,24.67
2023-10-06T07:10:54.253Z,29.17
2023-10-06T07:13:43.596Z,20.75
2023-10-06T07:16:32.412Z,30.27
2023-10-06T07:19:20.324Z,36.10
2023-10-06T07:22:11.918Z,17.77
2023-10-06T07:24:59.787Z,17.27
2023-10-06T07:27:49.140Z,21.60
2023-10-06T07:30:37.098Z,21.95
2023-10-06T07:33:25.029Z,18.58
2023-10-06T07:36:14.655Z,20.25
2023-10-06T07:39:09.898Z,15.68
2023-10-06T07:41:57.866Z,17.20
2023-10-06T07:44:46.526Z,19.17
2023-10-06T07:47:35.443Z,21.38
2023-10-06T07:50:23.557Z,24.88
2023-10-06T07:53:11.439Z,21.98
2023-10-06T07:56:07.760Z,26.95
2023-10-06T07:58:55.888Z,15.95
2023-10-06T08:01:44.054Z,17.88
2023-10-06T08:04:32.009Z,20.42
2023-10-06T08:07:22.181Z,21.98
2023-10-06T08:10:14.806Z,28.08
2023-10-06T08:13:04.921Z,22.20
2023-10-06T08:15:52.761Z,26.77
2023-10-06T08:18:41.283Z,20.52
2023-10-06T08:21:29.116Z,23.60
2023-10-06T08:24:17.017Z,24.20
2023-10-06T08:27:07.644Z,19.75
2023-10-06T08:29:56.735Z,18.35
2023-10-06T08:32:46.198Z,24.20
2023-10-06T08:35:34.228Z,28.17
2023-10-06T08:38:22.180Z,20.52
2023-10-06T08:41:10.774Z,18.25
2023-10-06T08:44:03.963Z,26.33
2023-10-06T08:46:54.458Z,20.00
2023-10-06T08:49:42.965Z,25.27
2023-10-06T08:52:34.180Z,18.48
2023-10-06T08:55:23.063Z,19.77
2023-10-06T08:58:14.959Z,20.05
2023-10-06T09:01:06.087Z,19.10
2023-10-06T09:03:56.635Z,22.23
2023-10-06T09:07:14.150Z,21.10
2023-10-06T09:10:18.372Z,19.80
2023-10-06T09:13:09.628Z,18.27
2023-10-06T09:16:00.894Z,18.77
2023-10-06T09:19:02.901Z,21.08
2023-10-06T09:22:05.927Z,27.25
2023-10-06T09:25:05.611Z,19.02
2023-10-06T09:28:04.654Z,19.08
2023-10-06T09:30:58.444Z,18.98
2023-10-06T09:33:49.608Z,23.73
2023-10-06T09:39:31.041Z,18.42
2023-10-06T09:42:19.444Z,17.45
2023-10-06T09:45:13.295Z,19.42
2023-10-06T09:48:06.664Z,15.45
2023-10-06T09:50:58.804Z,23.42
2023-10-06T09:53:48.688Z,23.33
2023-10-06T09:56:36.626Z,18.75
2023-10-06T09:59:27.283Z,18.60
2023-10-06T10:02:22.682Z,18.45
2023-10-06T10:05:12.250Z,20.17
2023-10-06T10:08:02.436Z,19.95
2023-10-06T10:10:56.291Z,20.60
2023-10-06T10:14:13.096Z,21.20
2023-10-06T10:17:15.331Z,21.75
2023-10-06T10:20:07.957Z,17.63
2023-10-06T10:22:58.224Z,19.25
2023-10-06T10:25:48.075Z,25.70
2023-10-06T10:28:37.832Z,17.67
2023-10-06T10:31:25.775Z,18.45
2023-10-06T10:34:24.993Z,15.52
2023-10-06T10:37:17.769Z,20.38
2023-10-06T10:40:11.445Z,21.98
2023-10-06T10:43:07.009Z,19.50
2023-10-06T10:45:59.154Z,21.48
2023-10-06T10:48:50.006Z,21.45
2023-10-06T10:51:51.706Z,17.52
2023-10-06T10:54:41.603Z,20.92
2023-10-06T10:57:29.863Z,19.90
2023-10-06T11:00:21.539Z,19.85
2023-10-06T11:03:12.378Z,18.83
2023-10-06T11:06:01.320Z,21.98
2023-10-06T11:08:49.115Z,20.77
2023-10-06T11:11:38.466Z,20.15
2023-10-06T11:14:26.924Z,19.83
2023-10-06T11:17:15.657Z,18.52
2023-10-06T11:20:14.879Z,20.45
2023-10-06T11:23:04.542Z,17.00
2023-10-06T11:25:52.805Z,19.35
2023-10-06T11:28:43.999Z,21.38
2023-10-06T11:31:32.197Z,19.38
2023-10-06T11:34:20.115Z,17.85
2023-10-06T11:37:10.148Z,25.30
2023-10-06T11:39:58.963Z,24.98
2023-10-06T11:42:47.213Z,19.60
2023-10-06T11:45:38.130Z,21.33
2023-10-06T11:48:27.286Z,18.33
2023-10-06T11:51:16.974Z,22.05
2023-10-06T11:54:07.240Z,23.88
2023-10-06T11:56:57.850Z,22.90
2023-10-06T11:59:50.889Z,19.00
2023-10-06T12:02:47.702Z,19.98
2023-10-06T12:05:36.480Z,22.40
2023-10-06T12:08:24.493Z,19.40
2023-10-06T12:11:14.507Z,20.55
2023-10-06T12:14:04.324Z,21.63
2023-10-06T12:16:56.239Z,23.60
2023-10-06T12:19:44.668Z,22.25
2023-10-06T12:22:41.063Z,24.70
2023-10-06T12:25:31.077Z,25.05
2023-10-06T12:28:21.945Z,18.48
2023-10-06T12:31:10.414Z,16.75
2023-10-06T12:33:58.601Z,20.95
2023-10-06T12:36:48.914Z,25.13
2023-10-06T12:39:36.759Z,19.08
2023-10-06T12:42:25.396Z,19.65
2023-10-06T12:45:19.568Z,14.95
2023-10-06T12:48:09.277Z,19.20
2023-10-06T12:50:58.008Z,23.60
2023-10-06T12:53:46.134Z,18.48
2023-10-06T12:56:34.333Z,19.42
2023-10-06T12:59:22.299Z,25.05
2023-10-06T13:02:11.874Z,30.85
2023-10-06T13:05:08.730Z,19.83
2023-10-06T13:07:58.897Z,18.77
2023-10-06T13:10:48.375Z,21.23
2023-10-06T13:13:36.241Z,20.42
2023-10-06T13:16:24.889Z,21.45
2023-10-06T13:19:14.217Z,19.30
2023-10-06T13:22:02.347Z,19.88
2023-10-06T13:24:50.659Z,23.67
2023-10-06T13:27:40.825Z,23.40
2023-10-06T13:30:29.306Z,18.80
2023-10-06T13:33:17.467Z,24.55
2023-10-06T13:36:09.754Z,21.77
2023-10-06T13:38:59.009Z,21.08
2023-10-06T13:41:50.445Z,17.75
2023-10-06T13:44:38.778Z,21.30
2023-10-06T13:47:27.139Z,18.42
2023-10-06T13:50:15.240Z,19.88
2023-10-06T13:53:06.031Z,18.50
2023-10-06T13:55:54.345Z,29.27
2023-10-06T13:58:42.341Z,26.95
2023-10-06T14:01:30.338Z,26.85
2023-10-06T14:04:22.348Z,22.27
2023-10-06T14:07:12.996Z,25.55
2023-10-06T14:10:02.407Z,20.90
2023-10-06T14:12:57.290Z,24.27
2023-10-06T14:15:50.435Z,25.08
2023-10-06T14:18:40.383Z,22.85
2023-10-06T14:21:29.574Z,19.88
2023-10-06T14:24:18.306Z,21.77
2023-10-06T14:27:07.940Z,23.98
2023-10-06T14:29:56.850Z,42.28
2023-10-06T14:32:56.435Z,22.65
2023-10-06T14:35:53.762Z,18.45
2023-10-06T14:38:58.966Z,20.77
2023-10-06T14:42:04.283Z,27.48
2023-10-06T14:45:25.708Z,26.13
2023-10-06T14:48:16.447Z,22.35
2023-10-06T14:51:05.363Z,26.33
2023-10-06T14:53:53.552Z,29.40
2023-10-06T14:56:41.722Z,30.33
2023-10-06T14:59:35.987Z,29.90
2023-10-06T15:02:25.651Z,25.55
2023-10-06T15:05:16.665Z,24.95
2023-10-06T15:08:05.098Z,26.13
2023-10-06T15:10:58.591Z,26.15
2023-10-06T15:13:48.465Z,28.40
2023-10-06T15:16:36.645Z,23.75
2023-10-06T15:19:26.747Z,21.58
2023-10-06T15:22:14.795Z,16.40
2023-10-06T15:25:02.908Z,29.05
2023-10-06T15:27:50.804Z,20.27
2023-10-06T15:30:42.005Z,27.17
2023-10-06T15:33:32.512Z,22.25
2023-10-06T15:36:22.890Z,23.58
2023-10-06T15:39:19.496Z,23.23
2023-10-06T15:42:10.141Z,16.38
2023-10-06T15:44:59.888Z,16.65
2023-10-06T15:47:49.078Z,15.98
2023-10-06T15:50:39.355Z,18.60
2023-10-06T15:53:30.439Z,28.58
2023-10-06T15:56:20.591Z,28.33
2023-10-06T15:59:18.428Z,29.73
2023-10-06T16:02:12.513Z,21.67
2023-10-06T16:05:00.660Z,21.02
2023-10-06T16:07:51.708Z,23.05
2023-10-06T16:10:41.294Z,23.10
2023-10-06T16:13:29.514Z,27.25
2023-10-06T16:16:19.999Z,25.25
2023-10-06T16:19:15.679Z,25.70
2023-10-06T16:22:07.050Z,28.43
2023-10-06T16:24:55.042Z,27.40
2023-10-06T16:27:44.345Z,26.02
2023-10-06T16:30:34.054Z,39.33
2023-10-06T16:33:26.644Z,48.17
2023-10-06T16:36:19.564Z,48.65
2023-10-06T16:39:22.483Z,32.25
2023-10-06T16:42:11.419Z,29.13
2023-10-06T16:45:00.866Z,25.08
2023-10-06T16:47:48.974Z,27.98
2023-10-06T16:50:40.280Z,19.17
2023-10-06T16:53:28.490Z,29.80
2023-10-06T16:56:16.675Z,20.33
2023-10-06T16:59:04.881Z,18.55
2023-10-06T17:01:56.309Z,26.17
2023-10-06T17:04:44.571Z,20.45
2023-10-06T17:07:38.294Z,28.92
2023-10-06T17:10:36.929Z,27.83
2023-10-06T17:13:25.150Z,25.00
2023-10-06T17:16:15.534Z,29.05
2023-10-06T17:19:11.307Z,34.13
2023-10-06T17:21:59.932Z,26.02
2023-10-06T17:24:51.143Z,26.65
2023-10-06T17:27:44.049Z,28.05
2023-10-06T17:30:32.955Z,26.75
2023-10-06T17:33:23.533Z,32.03
2023-10-06T17:36:13.418Z,28.92
2023-10-06T17:39:04.798Z,28.15
2023-10-06T17:41:55.818Z,27.80
2023-10-06T17:44:48.411Z,29.95
2023-10-06T17:47:36.599Z,31.50
2023-10-06T17:50:26.856Z,32.33
2023-10-06T17:53:16.783Z,37.42
2023-10-06T17:56:07.531Z,37.17
2023-10-06T17:58:58.649Z,38.15
2023-10-06T18:01:46.934Z,34.90
2023-10-06T18:04:40.711Z,28.77
2023-10-06T18:07:29.308Z,31.27
2023-10-06T18:10:19.571Z,30.63
2023-10-06T18:13:08.963Z,29.90
2023-10-06T18:15:57.689Z,27.95
2023-10-06T18:18:46.694Z,27.20
2023-10-06T18:21:34.766Z,27.50
2023-10-06T18:24:23.329Z,25.23
2023-10-06T18:27:12.766Z,22.08
2023-10-06T18:30:00.645Z,23.00
2023-10-06T18:32:48.636Z,17.70
2023-10-06T18:35:37.659Z,17.60
2023-10-06T18:38:26.109Z,17.17
2023-10-06T18:41:15.137Z,16.40
2023-10-06T18:44:11.863Z,19.23
2023-10-06T18:47:00.881Z,18.40
2023-10-06T18:49:49.112Z,19.25
2023-10-06T18:52:37.238Z,18.30
2023-10-06T18:55:25.880Z,19.08
2023-10-06T18:58:14.126Z,20.55
2023-10-06T19:01:07.581Z,18.85
2023-10-06T19:03:56.324Z,18.43
2023-10-06T19:06:44.722Z,18.85
2023-10-06T19:09:33.776Z,21.60
2023-10-06T19:12:21.986Z,18.58
2023-10-06T19:15:10.922Z,16.40
2023-10-06T19:18:01.043Z,16.88
2023-10-06T19:20:50.386Z,18.38
2023-10-06T19:23:38.902Z,16.60
2023-10-06T19:26:26.834Z,20.10
2023-10-06T19:29:15.584Z,19.90
2023-10-06T19:32:04.333Z,17.95
2023-10-06T19:34:54.033Z,16.90
2023-10-06T19:37:42.715Z,16.00
2023-10-06T19:40:30.973Z,16.38
2023-10-06T19:43:20.003Z,13.90
2023-10-06T19:46:11.261Z,15.52
2023-10-06T19:48:59.727Z,15.07
2023-10-06T19:51:49.182Z,15.65
2023-10-06T19:54:38.380Z,16.25
2023-10-06T19:57:27.304Z,13.80
2023-10-06T20:00:27.456Z,15.55
2023-10-06T20:03:16.331Z,18.95
2023-10-06T20:06:05.924Z,17.13
2023-10-06T20:08:55.975Z,18.48
2023-10-06T20:11:44.302Z,13.77
2023-10-06T20:14:32.492Z,20.20
2023-10-06T20:17:21.582Z,16.33
2023-10-06T20:20:13.079Z,19.38
2023-10-06T20:23:01.595Z,18.13
2023-10-06T20:25:53.685Z,16.98
2023-10-06T20:28:41.845Z,14.75
2023-10-06T20:31:30.622Z,17.20
2023-10-06T20:34:18.817Z,16.65
2023-10-06T20:37:06.665Z,18.25
2023-10-06T20:39:54.590Z,16.33
2023-10-06T20:42:44.318Z,22.02
2023-10-06T20:45:32.727Z,16.27
2023-10-06T20:48:20.903Z,16.75
2023-10-06T20:51:17.339Z,19.52
2023-10-06T20:54:05.521Z,17.58
2023-10-06T20:56:53.627Z,18.05
2023-10-06T20:59:42.820Z,20.48
2023-10-06T21:02:31.166Z,17.17
2023-10-06T21:05:20.762Z,18.73
2023-10-06T21:08:09.571Z,16.65
2023-10-06T21:10:59.820Z,19.33
2023-10-06T21:13:48.298Z,18.60
2023-10-06T21:16:37.976Z,16.80
2023-10-06T21:19:25.797Z,18.83
2023-10-06T21:22:16.230Z,17.10
2023-10-06T21:25:04.372Z,16.75
2023-10-06T21:27:52.208Z,20.75
2023-10-06T21:30:40.440Z,19.08
2023-10-06T21:33:29.687Z,18.45
2023-10-06T21:36:20.237Z,21.65
2023-10-06T21:39:08.183Z,18.80
2023-10-06T21:41:55.917Z,17.65
2023-10-06T21:44:44.495Z,20.38
2023-10-06T21:47:33.009Z,19.33
2023-10-06T21:50:23.124Z,19.23
2023-10-06T21:53:12.403Z,19.40
2023-10-06T21:56:09.980Z,20.02
2023-10-06T21:58:58.748Z,19.35
2023-10-06T22:01:46.659Z,22.45
2023-10-06T22:04:34.710Z,22.85
2023-10-06T22:07:24.401Z,17.52
2023-10-06T22:10:15.443Z,19.30
2023-10-06T22:13:04.390Z,24.40
2023-10-06T22:15:52.184Z,19.98
2023-10-06T22:18:39.997Z,32.47
2023-10-06T22:21:27.785Z,18.27
2023-10-06T22:24:17.983Z,19.13
2023-10-06T22:27:08.279Z,19.98
2023-10-06T22:29:56.997Z,19.33
2023-10-06T22:32:45.138Z,22.25
2023-10-06T22:35:33.898Z,19.67
2023-10-06T22:38:21.786Z,20.02
2023-10-06T22:41:11.360Z,20.73
2023-10-06T22:43:59.362Z,23.35
2023-10-06T22:46:48.423Z,19.63
2023-10-06T22:49:37.076Z,19.30
2023-10-06T22:52:25.531Z,18.65
2023-10-06T22:55:15.799Z,20.20
2023-10-06T22:58:05.390Z,23.02
2023-10-06T23:00:53.365Z,25.20
2023-10-06T23:03:41.300Z,22.17
2023-10-06T23:06:29.582Z,22.25
2023-10-06T23:09:18.634Z,21.25
2023-10-06T23:12:06.785Z,21.33
2023-10-06T23:14:57.183Z,21.13
2023-10-06T23:17:46.510Z,22.27
2023-10-06T23:20:43.017Z,21.33
2023-10-06T23:23:37.765Z,22.17
2023-10-06T23:26:25.563Z,21.05
2023-10-06T23:29:15.498Z,20.92
2023-10-06T23:32:04.976Z,20.48
2023-10-06T23:34:53.222Z,20.58
2023-10-06T23:37:41.463Z,20.55
2023-10-06T23:40:35.045Z,21.52
2023-10-06T23:43:24.184Z,25.63
2023-10-06T23:46:16.267Z,19.83
2023-10-06T23:49:11.099Z,25.13
2023-10-06T23:54:48.684Z,18.70
2023-10-06T23:57:36.997Z,24.45
